Time;durP1;ratioP1;P1;durP2;ratioP2;P2;SDS_P1;SDS_P2;PMS_P1;PMS_P2;Temp;Humidity;BMP_temperature;BMP_pressure;BME280_temperature;BME280_humidity;BME280_pressure;Samples;Min_cycle;Max_cycle;Signal;HPM_P1;HPM_P2
2021/10/15 00:01:04;;;;;;;13.00;6.88;;;9.60;76.20;;;;;;5073021;28;20102;-80
2021/10/15 00:03:31;;;;;;;11.48;6.38;;;9.60;76.30;;;;;;5072875;28;20098;-80
2021/10/15 00:05:58;;;;;;;11.55;6.97;;;9.70;76.30;;;;;;5072652;28;20082;-80
2021/10/15 00:08:24;;;;;;;12.23;7.28;;;9.60;76.30;;;;;;5073459;28;20575;-80
2021/10/15 00:10:51;;;;;;;16.58;7.75;;;9.60;76.30;;;;;;5072754;28;20044;-80
2021/10/15 00:13:19;;;;;;;9.35;7.22;;;9.60;76.30;;;;;;5072580;28;20048;-80
2021/10/15 00:15:46;;;;;;;20.85;7.47;;;9.50;76.40;;;;;;5072696;28;20045;-80
2021/10/15 00:18:13;;;;;;;15.85;7.40;;;9.60;76.40;;;;;;5072766;28;20048;-80
2021/10/15 00:20:40;;;;;;;13.60;7.38;;;9.50;76.40;;;;;;5073009;28;20052;-80
2021/10/15 00:23:07;;;;;;;12.45;8.63;;;9.50;76.50;;;;;;5072822;28;20051;-80
2021/10/15 00:25:34;;;;;;;11.32;6.88;;;9.50;76.50;;;;;;5072203;28;20049;-80
2021/10/15 00:28:01;;;;;;;14.80;7.25;;;9.50;76.50;;;;;;5072403;28;20101;-80
2021/10/15 00:30:28;;;;;;;15.68;7.40;;;9.50;76.60;;;;;;5072779;28;20093;-80
2021/10/15 00:32:54;;;;;;;12.95;7.40;;;9.50;76.60;;;;;;5072396;28;20056;-80
2021/10/15 00:35:21;;;;;;;12.68;7.50;;;9.50;76.60;;;;;;5070412;28;20048;-80
2021/10/15 00:37:48;;;;;;;14.80;7.32;;;9.50;76.60;;;;;;5072285;28;20113;-80
2021/10/15 00:40:16;;;;;;;14.52;7.88;;;9.50;76.70;;;;;;5072393;28;20064;-80
2021/10/15 00:42:44;;;;;;;11.63;6.72;;;9.50;76.70;;;;;;5072180;28;20044;-80
2021/10/15 00:45:11;;;;;;;12.73;7.53;;;9.50;76.70;;;;;;5056406;28;20086;-80
2021/10/15 00:47:38;;;;;;;12.18;6.88;;;9.50;76.70;;;;;;5072775;28;20075;-79
2021/10/15 00:50:06;;;;;;;13.27;7.32;;;9.50;76.70;;;;;;5071688;28;20045;-80
2021/10/15 00:52:34;;;;;;;11.15;7.00;;;9.40;76.80;;;;;;5072011;28;20097;-80
2021/10/15 00:55:01;;;;;;;12.00;6.95;;;9.40;76.80;;;;;;5072087;28;20560;-80
2021/10/15 00:57:27;;;;;;;12.25;6.88;;;9.40;76.80;;;;;;5072037;28;20098;-80
2021/10/15 00:59:54;;;;;;;11.18;7.00;;;9.40;76.80;;;;;;5072049;28;20048;-80
2021/10/15 01:02:21;;;;;;;12.38;7.03;;;9.40;76.90;;;;;;5070242;28;20654;-80
2021/10/15 01:04:49;;;;;;;13.95;7.35;;;9.40;76.90;;;;;;5071431;28;20098;-80
2021/10/15 01:07:16;;;;;;;15.02;8.10;;;9.40;76.90;;;;;;5071403;28;20158;-80
2021/10/15 01:09:43;;;;;;;11.23;6.43;;;9.40;77.00;;;;;;5071708;28;20094;-80
2021/10/15 01:12:10;;;;;;;11.05;6.88;;;9.40;77.00;;;;;;5055710;28;20098;-80
2021/10/15 01:14:37;;;;;;;12.48;7.30;;;9.40;77.00;;;;;;5072005;28;20041;-80
2021/10/15 01:17:05;;;;;;;11.80;6.95;;;9.40;77.00;;;;;;5071536;28;20483;-80
2021/10/15 01:19:33;;;;;;;12.00;6.65;;;9.40;77.10;;;;;;5071005;28;20086;-80
2021/10/15 01:22:06;;;;;;;12.93;6.80;;;9.40;77.10;;;;;;5071286;28;20201;-80
2021/10/15 01:24:34;;;;;;;18.55;6.60;;;9.40;77.10;;;;;;5071427;28;20107;-80
2021/10/15 01:27:09;;;;;;;10.82;6.68;;;9.40;77.20;;;;;;5071284;28;20072;-80
2021/10/15 01:29:38;;;;;;;12.65;6.63;;;9.40;77.20;;;;;;5071835;28;20048;-80
2021/10/15 01:32:08;;;;;;;12.35;7.25;;;9.40;77.20;;;;;;5071003;28;20048;-80
2021/10/15 01:34:35;;;;;;;12.23;6.75;;;9.40;77.30;;;;;;5070649;28;20726;-80
2021/10/15 01:37:03;;;;;;;12.73;7.10;;;9.40;77.30;;;;;;5071216;28;20052;-80
2021/10/15 01:39:30;;;;;;;13.45;6.70;;;9.40;77.40;;;;;;5071146;28;20052;-80
2021/10/15 01:41:57;;;;;;;11.50;6.55;;;9.40;77.40;;;;;;5071122;28;20052;-80
2021/10/15 01:44:24;;;;;;;14.10;6.55;;;9.40;77.50;;;;;;5071467;28;20379;-80
2021/10/15 01:46:51;;;;;;;12.07;6.70;;;9.40;77.50;;;;;;5070853;28;20049;-80
2021/10/15 01:49:18;;;;;;;9.60;6.53;;;9.40;77.60;;;;;;5070518;28;20043;-79
2021/10/15 01:51:45;;;;;;;10.10;6.50;;;9.40;77.60;;;;;;5070870;28;20049;-81
2021/10/15 01:54:12;;;;;;;9.63;6.40;;;9.40;77.60;;;;;;5070928;28;20503;-80
2021/10/15 01:56:39;;;;;;;12.77;6.32;;;9.50;77.70;;;;;;5071481;28;20079;-80
2021/10/15 01:59:07;;;;;;;10.98;6.30;;;9.50;77.70;;;;;;5070776;28;20101;-80
2021/10/15 02:01:34;;;;;;;14.95;6.72;;;9.50;77.70;;;;;;5070486;28;20074;-80
2021/10/15 02:04:01;;;;;;;10.98;6.28;;;9.40;77.80;;;;;;5070256;28;20098;-80
2021/10/15 02:06:28;;;;;;;9.88;5.75;;;9.50;77.80;;;;;;5070885;28;20074;-80
2021/10/15 02:08:55;;;;;;;9.82;6.25;;;9.50;77.80;;;;;;5070747;28;20052;-80
2021/10/15 02:11:21;;;;;;;10.38;5.93;;;9.50;77.80;;;;;;5068985;28;20054;-80
2021/10/15 02:13:48;;;;;;;11.98;6.03;;;9.50;77.90;;;;;;5070427;28;20127;-79
2021/10/15 02:16:15;;;;;;;11.10;6.18;;;9.60;77.90;;;;;;5070126;28;20036;-80
2021/10/15 02:18:42;;;;;;;9.52;5.88;;;9.60;78.00;;;;;;5069823;28;20091;-80
2021/10/15 02:21:09;;;;;;;11.55;6.35;;;9.60;78.00;;;;;;5070541;28;20094;-80
2021/10/15 02:23:36;;;;;;;9.60;6.10;;;9.60;78.00;;;;;;5070978;28;20045;-80
2021/10/15 02:26:03;;;;;;;10.07;5.75;;;9.60;78.10;;;;;;5070050;28;20456;-80
2021/10/15 02:28:30;;;;;;;10.88;5.95;;;9.70;78.10;;;;;;5070433;28;20044;-80
2021/10/15 02:30:56;;;;;;;10.55;5.35;;;9.70;78.10;;;;;;5069898;28;20570;-80
2021/10/15 02:33:23;;;;;;;10.18;6.25;;;9.70;78.10;;;;;;5070286;28;20489;-80
2021/10/15 02:35:50;;;;;;;10.57;6.07;;;9.70;78.10;;;;;;5070413;28;20598;-80
2021/10/15 02:38:17;;;;;;;10.50;5.65;;;9.70;78.10;;;;;;5070529;28;20048;-80
2021/10/15 02:40:45;;;;;;;11.40;5.82;;;9.70;78.20;;;;;;5070137;28;20127;-80
2021/10/15 02:43:12;;;;;;;9.45;5.05;;;9.70;78.10;;;;;;5070012;28;20049;-80
2021/10/15 02:45:39;;;;;;;13.57;5.45;;;9.70;78.20;;;;;;5069972;28;20036;-80
2021/10/15 02:48:06;;;;;;;8.63;5.95;;;9.70;78.10;;;;;;5070230;28;20048;-80
2021/10/15 02:50:33;;;;;;;9.05;5.57;;;9.80;78.20;;;;;;5070657;28;20053;-80
2021/10/15 02:53:00;;;;;;;10.05;5.57;;;9.80;78.20;;;;;;5069980;28;20060;-80
2021/10/15 02:55:27;;;;;;;7.88;4.70;;;9.80;78.20;;;;;;5070000;28;20098;-80
2021/10/15 02:57:54;;;;;;;10.18;5.70;;;9.80;78.20;;;;;;5070014;28;20052;-80
2021/10/15 03:00:21;;;;;;;10.57;5.53;;;9.80;78.20;;;;;;5069781;28;20567;-80
2021/10/15 03:02:48;;;;;;;9.23;5.10;;;9.90;78.10;;;;;;5070101;28;20048;-79
2021/10/15 03:05:15;;;;;;;13.90;6.00;;;9.90;78.10;;;;;;5069599;28;20131;-79
2021/10/15 03:07:42;;;;;;;8.50;4.93;;;9.90;78.10;;;;;;5069880;28;20455;-80
2021/10/15 03:10:09;;;;;;;11.30;5.60;;;9.90;78.10;;;;;;5069820;28;20074;-80
2021/10/15 03:12:37;;;;;;;9.50;5.72;;;9.90;78.10;;;;;;5069949;28;20044;-79
2021/10/15 03:15:07;;;;;;;9.23;5.90;;;9.90;78.00;;;;;;5069541;28;20109;-80
2021/10/15 03:17:34;;;;;;;9.10;5.50;;;9.90;78.00;;;;;;5070573;28;20048;-80
2021/10/15 03:20:01;;;;;;;11.25;5.63;;;9.90;78.00;;;;;;5069580;28;20615;-79
2021/10/15 03:22:28;;;;;;;11.00;5.32;;;9.90;77.90;;;;;;5069724;28;20045;-80
2021/10/15 03:24:55;;;;;;;7.68;5.30;;;9.90;77.90;;;;;;5069789;28;20106;-80
2021/10/15 03:27:23;;;;;;;10.48;5.60;;;9.90;77.90;;;;;;5069793;28;20049;-80
2021/10/15 03:29:49;;;;;;;8.38;5.18;;;9.90;77.90;;;;;;5070358;28;20571;-80
2021/10/15 03:32:16;;;;;;;10.10;5.55;;;9.90;77.90;;;;;;5073840;28;20574;-80
2021/10/15 03:34:43;;;;;;;8.93;5.60;;;9.90;77.80;;;;;;5073403;28;20094;-80
2021/10/15 03:37:10;;;;;;;10.65;5.63;;;9.90;77.90;;;;;;5073426;28;20090;-80
2021/10/15 03:39:37;;;;;;;9.50;5.53;;;9.90;77.80;;;;;;5073409;28;20113;-80
2021/10/15 03:42:04;;;;;;;9.60;5.22;;;9.90;77.80;;;;;;5073439;28;20106;-80
2021/10/15 03:44:31;;;;;;;10.68;5.75;;;9.90;77.80;;;;;;5073569;28;20048;-81
2021/10/15 03:46:58;;;;;;;9.57;5.65;;;9.90;77.80;;;;;;5073302;28;20048;-81
2021/10/15 03:49:25;;;;;;;10.15;4.90;;;9.90;77.80;;;;;;5073073;28;20098;-81
2021/10/15 03:51:52;;;;;;;8.00;5.38;;;9.90;77.80;;;;;;5073137;28;20044;-80
2021/10/15 03:54:19;;;;;;;8.10;5.20;;;9.90;77.80;;;;;;5073276;28;20098;-80
2021/10/15 03:56:46;;;;;;;10.05;5.88;;;9.90;77.80;;;;;;5073194;28;20102;-80
2021/10/15 03:59:12;;;;;;;11.85;4.88;;;9.90;77.80;;;;;;5073039;28;20545;-81
2021/10/15 04:01:39;;;;;;;10.93;6.13;;;9.90;77.80;;;;;;5073003;28;20048;-81
2021/10/15 04:04:06;;;;;;;10.55;5.90;;;9.90;77.80;;;;;;5072938;28;20566;-80
2021/10/15 04:06:33;;;;;;;8.93;6.05;;;9.90;77.80;;;;;;5073041;28;20052;-80
2021/10/15 04:09:00;;;;;;;8.50;5.47;;;9.90;77.80;;;;;;5072941;28;20102;-80
2021/10/15 04:11:27;;;;;;;8.57;5.35;;;9.90;77.70;;;;;;5073444;28;20182;-80
2021/10/15 04:13:54;;;;;;;11.98;5.57;;;9.80;77.70;;;;;;5072266;28;20106;-80
2021/10/15 04:16:21;;;;;;;12.00;6.28;;;9.80;77.70;;;;;;5072702;28;20037;-80
2021/10/15 04:18:48;;;;;;;9.10;5.75;;;9.80;77.80;;;;;;5072696;28;20084;-80
2021/10/15 04:21:14;;;;;;;10.90;5.80;;;9.80;77.70;;;;;;5072762;28;20110;-80
2021/10/15 04:23:41;;;;;;;9.95;5.70;;;9.80;77.70;;;;;;5073075;28;20110;-80
2021/10/15 04:26:08;;;;;;;8.93;5.90;;;9.70;77.80;;;;;;5072588;28;20071;-80
2021/10/15 04:28:35;;;;;;;11.73;6.28;;;9.70;77.80;;;;;;5072205;28;20701;-80
2021/10/15 04:31:03;;;;;;;9.77;5.97;;;9.70;77.80;;;;;;5072584;28;20559;-80
2021/10/15 04:33:30;;;;;;;10.82;5.88;;;9.70;77.80;;;;;;5072319;28;20128;-80
2021/10/15 04:35:56;;;;;;;9.40;5.60;;;9.70;77.80;;;;;;5072410;28;20106;-80
2021/10/15 04:38:23;;;;;;;9.75;5.90;;;9.70;77.90;;;;;;5072810;28;20106;-81
2021/10/15 04:40:50;;;;;;;9.45;5.57;;;9.70;77.80;;;;;;5072209;28;20051;-80
2021/10/15 04:43:17;;;;;;;9.02;5.70;;;9.60;77.90;;;;;;5071204;28;20059;-81
2021/10/15 04:45:44;;;;;;;8.55;5.65;;;9.60;77.90;;;;;;5072271;28;20063;-81
2021/10/15 04:48:11;;;;;;;11.70;5.80;;;9.60;78.00;;;;;;5071171;28;20074;-80
2021/10/15 04:50:39;;;;;;;12.85;6.65;;;9.60;78.00;;;;;;5072704;28;20044;-80
2021/10/15 04:53:07;;;;;;;7.47;5.68;;;9.60;77.90;;;;;;5071867;28;20106;-80
2021/10/15 04:55:35;;;;;;;13.82;6.40;;;9.50;78.00;;;;;;5071957;28;20508;-81
2021/10/15 04:58:03;;;;;;;11.35;5.65;;;9.60;78.00;;;;;;5072038;28;20052;-81
2021/10/15 05:00:31;;;;;;;9.68;6.30;;;9.60;78.00;;;;;;5072086;28;20041;-81
2021/10/15 05:02:59;;;;;;;10.85;5.95;;;9.50;78.00;;;;;;5071787;28;20135;-81
2021/10/15 05:05:27;;;;;;;10.25;6.38;;;9.50;78.00;;;;;;5072365;28;20041;-81
2021/10/15 05:07:55;;;;;;;13.57;6.75;;;9.50;78.10;;;;;;5071853;28;20049;-81
2021/10/15 05:10:23;;;;;;;11.40;6.57;;;9.50;78.10;;;;;;5071315;28;20040;-81
2021/10/15 05:12:51;;;;;;;7.72;5.97;;;9.50;78.10;;;;;;5071504;28;20044;-80
2021/10/15 05:15:19;;;;;;;10.93;5.85;;;9.50;78.10;;;;;;5071437;28;20040;-80
2021/10/15 05:17:47;;;;;;;9.82;6.88;;;9.50;78.20;;;;;;5072130;28;20106;-81
2021/10/15 05:20:16;;;;;;;11.70;6.45;;;9.50;78.20;;;;;;5070919;28;20102;-80
2021/10/15 05:22:44;;;;;;;9.85;6.25;;;9.50;78.30;;;;;;5071299;28;20044;-81
2021/10/15 05:25:12;;;;;;;10.70;6.35;;;9.50;78.30;;;;;;5070958;28;20098;-81
2021/10/15 05:27:39;;;;;;;11.65;6.40;;;9.50;78.30;;;;;;5071252;28;20452;-81
2021/10/15 05:30:08;;;;;;;9.77;6.20;;;9.50;78.40;;;;;;5071325;28;20045;-80
2021/10/15 05:32:35;;;;;;;13.45;5.95;;;9.50;78.40;;;;;;5071623;28;20113;-80
2021/10/15 05:35:03;;;;;;;10.60;6.22;;;9.50;78.50;;;;;;5071152;28;20105;-80
2021/10/15 05:37:30;;;;;;;9.68;6.72;;;9.50;78.50;;;;;;5071006;28;20041;-80
2021/10/15 05:39:57;;;;;;;11.45;6.18;;;9.50;78.60;;;;;;5070562;28;20500;-80
2021/10/15 05:42:24;;;;;;;10.65;6.25;;;9.50;78.60;;;;;;5071119;28;20094;-81
2021/10/15 05:44:51;;;;;;;13.70;6.82;;;9.50;78.60;;;;;;5071130;28;20386;-80
2021/10/15 05:47:18;;;;;;;13.73;6.25;;;9.50;78.70;;;;;;5071412;28;20646;-80
2021/10/15 05:49:45;;;;;;;11.77;5.82;;;9.50;78.70;;;;;;5070763;28;20045;-80
2021/10/15 05:52:15;;;;;;;12.23;6.68;;;9.60;78.80;;;;;;5070778;28;20090;-80
2021/10/15 06:00:04;;;;;;;11.02;6.63;;;9.60;78.80;;;;;;5070779;28;20060;-80
2021/10/15 06:02:34;;;;;;;10.32;6.32;;;9.70;78.90;;;;;;5071238;28;20496;-80
2021/10/15 06:15:52;;;;;;;13.52;6.75;;;9.70;79.00;;;;;;5070562;28;20049;-80
2021/10/15 06:18:23;;;;;;;10.85;6.07;;;9.70;79.10;;;;;;5070618;28;20098;-80
2021/10/15 06:20:50;;;;;;;10.50;6.32;;;9.70;79.10;;;;;;5070684;28;20566;-80
2021/10/15 06:23:19;;;;;;;12.02;6.82;;;9.70;79.10;;;;;;5070517;28;20420;-79
2021/10/15 06:25:47;;;;;;;11.85;6.78;;;9.80;79.20;;;;;;5070155;28;20105;-80
2021/10/15 06:28:14;;;;;;;10.10;6.55;;;9.70;79.20;;;;;;5070419;28;20048;-81
2021/10/15 06:30:42;;;;;;;11.07;6.20;;;9.80;79.30;;;;;;5070457;28;20044;-80
2021/10/15 06:33:09;;;;;;;11.15;6.75;;;9.80;79.40;;;;;;5070276;28;20044;-80
2021/10/15 06:35:36;;;;;;;10.02;6.65;;;9.80;79.40;;;;;;5070789;28;20048;-80
2021/10/15 06:38:06;;;;;;;11.43;6.82;;;9.90;79.50;;;;;;5069926;28;20426;-80
2021/10/15 06:40:35;;;;;;;10.38;7.38;;;9.90;79.50;;;;;;5070086;28;20055;-80
2021/10/15 06:43:02;;;;;;;14.45;7.55;;;9.90;79.60;;;;;;5070108;28;20052;-80
2021/10/15 06:45:30;;;;;;;15.18;7.80;;;9.90;79.70;;;;;;5070352;28;20041;-80
2021/10/15 06:47:57;;;;;;;11.73;7.03;;;9.90;79.80;;;;;;5070158;28;20044;-80
2021/10/15 06:50:24;;;;;;;13.82;7.88;;;9.90;79.80;;;;;;5070737;28;20053;-80
2021/10/15 06:52:52;;;;;;;12.95;7.05;;;9.90;79.90;;;;;;5069558;28;20091;-81
2021/10/15 06:55:20;;;;;;;13.68;7.63;;;10.00;79.90;;;;;;5070034;28;20044;-81
2021/10/15 06:57:48;;;;;;;11.80;7.25;;;10.00;79.90;;;;;;5070121;28;20048;-81
2021/10/15 07:00:16;;;;;;;11.20;6.32;;;10.00;80.00;;;;;;5070164;28;20052;-81
2021/10/15 07:02:43;;;;;;;9.93;6.50;;;10.00;80.00;;;;;;5070349;28;20045;-81
2021/10/15 07:05:11;;;;;;;15.32;7.28;;;10.00;80.00;;;;;;5071172;28;20055;-82
2021/10/15 07:07:38;;;;;;;9.85;6.57;;;10.10;80.10;;;;;;5073644;28;20037;-80
2021/10/15 07:10:06;;;;;;;11.75;6.55;;;10.10;80.10;;;;;;5073991;28;20049;-80
2021/10/15 07:12:40;;;;;;;11.23;6.53;;;10.20;80.10;;;;;;5071750;28;20053;-80
2021/10/15 07:15:09;;;;;;;13.43;7.10;;;10.20;80.10;;;;;;5073538;28;20471;-81
2021/10/15 07:17:37;;;;;;;11.48;6.63;;;10.20;80.10;;;;;;5073251;28;20052;-80
2021/10/15 07:20:05;;;;;;;14.85;7.47;;;10.20;80.20;;;;;;5077385;28;20185;-80
2021/10/15 07:22:32;;;;;;;12.18;6.95;;;10.20;80.20;;;;;;5076946;28;20048;-80
2021/10/15 07:25:00;;;;;;;9.48;7.20;;;10.20;80.20;;;;;;5074870;28;20048;-80
2021/10/15 07:27:27;;;;;;;10.10;6.90;;;10.30;80.20;;;;;;5074693;28;20530;-80
2021/10/15 07:29:54;;;;;;;11.52;7.35;;;10.20;80.20;;;;;;5075520;28;20467;-80
2021/10/15 07:32:21;;;;;;;10.23;6.05;;;10.30;80.20;;;;;;5077201;28;20048;-81
2021/10/15 07:34:48;;;;;;;9.32;5.82;;;10.30;80.30;;;;;;5075957;28;20041;-80
2021/10/15 07:37:16;;;;;;;14.50;6.90;;;10.30;80.30;;;;;;5074911;28;20508;-80
2021/10/15 07:39:43;;;;;;;11.35;7.38;;;10.40;80.30;;;;;;5074657;28;20101;-80
2021/10/15 07:42:10;;;;;;;13.38;7.05;;;10.40;80.30;;;;;;5055161;28;20052;-80
2021/10/15 07:44:37;;;;;;;13.20;6.57;;;10.40;80.30;;;;;;5079415;28;20098;-81
2021/10/15 07:47:04;;;;;;;9.98;7.07;;;10.40;80.30;;;;;;5074777;28;20056;-81
2021/10/15 07:49:31;;;;;;;9.43;6.32;;;10.40;80.40;;;;;;5075156;28;20143;-81
2021/10/15 07:51:58;;;;;;;9.57;6.63;;;10.40;80.40;;;;;;5074515;28;20109;-80
2021/10/15 07:54:26;;;;;;;13.55;7.78;;;10.40;80.40;;;;;;5072027;28;20045;-80
2021/10/15 07:56:53;;;;;;;11.93;6.28;;;10.50;80.50;;;;;;5074036;28;20562;-80
2021/10/15 07:59:20;;;;;;;13.50;6.50;;;10.50;80.50;;;;;;5078602;28;20098;-80
2021/10/15 08:01:47;;;;;;;11.57;7.22;;;10.50;80.60;;;;;;5074337;28;20083;-80
2021/10/15 08:04:14;;;;;;;10.27;6.57;;;10.50;80.60;;;;;;5074243;28;20535;-80
2021/10/15 08:06:49;;;;;;;10.15;7.07;;;10.60;80.70;;;;;;5076797;28;20440;-80
2021/10/15 08:09:17;;;;;;;17.73;7.70;;;10.60;80.80;;;;;;5070562;28;20045;-80
2021/10/15 08:11:44;;;;;;;17.52;7.55;;;10.60;80.90;;;;;;5077361;28;20052;-80
2021/10/15 08:14:11;;;;;;;11.07;6.93;;;10.60;80.90;;;;;;5075924;28;20452;-81
2021/10/15 08:16:37;;;;;;;11.43;7.95;;;10.70;81.00;;;;;;5073136;28;20558;-80
2021/10/15 08:19:04;;;;;;;13.82;8.57;;;10.70;81.00;;;;;;5074507;28;20075;-80
2021/10/15 08:21:31;;;;;;;15.45;10.02;;;10.70;81.10;;;;;;5072930;28;20086;-81
2021/10/15 08:23:58;;;;;;;13.90;8.65;;;10.80;81.10;;;;;;5073281;28;20459;-81
2021/10/15 08:26:25;;;;;;;13.77;8.55;;;10.80;81.20;;;;;;5076854;28;20065;-81
2021/10/15 08:28:58;;;;;;;17.38;9.40;;;10.80;81.20;;;;;;5076157;28;20562;-80
2021/10/15 08:31:26;;;;;;;11.52;6.95;;;10.90;81.30;;;;;;5073964;28;20048;-81
2021/10/15 08:33:54;;;;;;;19.02;11.38;;;10.90;81.30;;;;;;5073674;28;20044;-81
2021/10/15 08:36:22;;;;;;;10.95;6.93;;;10.90;81.30;;;;;;5072979;28;20048;-80
2021/10/15 08:38:51;;;;;;;13.10;7.95;;;11.00;81.40;;;;;;5074569;28;20044;-80
2021/10/15 08:41:23;;;;;;;13.57;8.15;;;11.00;81.40;;;;;;5085853;28;20101;-80
2021/10/15 08:43:57;;;;;;;17.50;9.25;;;11.10;81.40;;;;;;5076331;28;20040;-80
2021/10/15 08:46:25;;;;;;;17.83;9.27;;;11.10;81.40;;;;;;5074223;28;20044;-80
2021/10/15 08:48:53;;;;;;;13.20;7.55;;;11.20;81.50;;;;;;5073399;28;20040;-80
2021/10/15 08:51:21;;;;;;;12.85;8.05;;;11.30;81.60;;;;;;5070650;28;20048;-80
2021/10/15 08:53:53;;;;;;;13.50;8.07;;;11.30;81.60;;;;;;5074709;28;20048;-80
2021/10/15 08:56:23;;;;;;;11.65;7.60;;;11.40;81.60;;;;;;5077915;28;20049;-80
2021/10/15 08:58:57;;;;;;;11.98;7.18;;;11.50;81.60;;;;;;5073656;28;20094;-81
2021/10/15 09:01:29;;;;;;;13.15;7.75;;;11.60;81.60;;;;;;5073218;28;20040;-80
2021/10/15 09:04:03;;;;;;;10.73;7.47;;;11.70;81.50;;;;;;5073356;28;20095;-80
2021/10/15 09:06:41;;;;;;;12.98;7.43;;;11.80;81.50;;;;;;5074080;28;20044;-80
2021/10/15 09:09:09;;;;;;;15.27;8.50;;;11.90;81.50;;;;;;5070073;28;20049;-80
2021/10/15 09:11:40;;;;;;;15.15;8.38;;;11.90;81.50;;;;;;5077677;28;20053;-80
2021/10/15 09:14:16;;;;;;;12.98;8.90;;;12.00;81.70;;;;;;5073319;28;20056;-80
2021/10/15 09:17:08;;;;;;;13.02;8.60;;;12.20;81.80;;;;;;5074748;28;20040;-80
2021/10/15 09:19:47;;;;;;;16.67;9.32;;;12.40;81.90;;;;;;5073329;28;20048;-80
2021/10/15 09:22:14;;;;;;;14.63;8.75;;;12.40;82.00;;;;;;5073018;28;20082;-80
2021/10/15 09:25:11;;;;;;;15.95;8.93;;;12.60;82.10;;;;;;5072687;28;20093;-78
2021/10/15 09:27:44;;;;;;;16.38;8.32;;;12.80;82.10;;;;;;5059505;28;20046;-80
2021/10/15 09:30:22;;;;;;;17.00;9.18;;;12.90;82.00;;;;;;5053617;28;20049;-80
2021/10/15 09:32:51;;;;;;;13.23;7.78;;;13.00;82.00;;;;;;5084573;28;20105;-81
2021/10/15 09:35:23;;;;;;;14.95;7.88;;;13.20;81.90;;;;;;5074927;28;20057;-80
2021/10/15 09:37:55;;;;;;;15.82;8.20;;;13.40;81.80;;;;;;5072796;28;20460;-80
2021/10/15 09:40:24;;;;;;;13.35;7.97;;;13.50;81.70;;;;;;5072952;28;20464;-81
2021/10/15 09:42:58;;;;;;;14.80;7.90;;;13.70;81.50;;;;;;5072910;28;20044;-81
2021/10/15 09:45:52;;;;;;;11.23;6.32;;;13.90;81.40;;;;;;5069825;28;20519;-80
2021/10/15 09:48:24;;;;;;;13.43;7.13;;;14.10;81.10;;;;;;5052790;28;20055;-80
2021/10/15 09:51:15;;;;;;;15.38;6.30;;;14.20;80.90;;;;;;5073276;28;20298;-81
2021/10/15 09:54:14;;;;;;;17.52;6.63;;;14.40;80.60;;;;;;5088475;28;20058;-80
2021/10/15 09:56:49;;;;;;;13.27;6.18;;;14.50;80.30;;;;;;5084646;28;20044;-81
2021/10/15 09:59:16;;;;;;;15.18;5.70;;;14.60;80.00;;;;;;5075759;28;20052;-80
2021/10/15 10:01:43;;;;;;;15.38;5.75;;;14.80;79.80;;;;;;5072369;28;20106;-80
2021/10/15 10:04:11;;;;;;;11.32;5.38;;;14.90;79.50;;;;;;5072791;28;20131;-84
2021/10/15 10:06:39;;;;;;;10.02;5.15;;;15.00;79.30;;;;;;5073703;28;20048;-83
2021/10/15 10:09:07;;;;;;;12.68;5.55;;;15.10;79.10;;;;;;5069625;28;20501;-84
2021/10/15 10:11:34;;;;;;;10.25;5.28;;;15.20;78.80;;;;;;5076204;28;20052;-84
2021/10/15 10:14:20;;;;;;;13.43;5.20;;;15.30;78.70;;;;;;5073583;28;20059;-82
2021/10/15 10:16:50;;;;;;;11.50;4.88;;;15.40;78.50;;;;;;5071933;28;20497;-83
2021/10/15 10:19:21;;;;;;;10.98;4.70;;;15.40;78.20;;;;;;5072136;28;20052;-83
2021/10/15 10:21:48;;;;;;;11.77;4.57;;;15.60;78.00;;;;;;5071989;28;20093;-82
2021/10/15 10:24:21;;;;;;;7.50;3.90;;;15.70;77.80;;;;;;5068508;28;20048;-83
2021/10/15 10:26:53;;;;;;;9.02;4.15;;;15.80;77.60;;;;;;5073260;28;20057;-83
2021/10/15 10:29:21;;;;;;;11.90;4.40;;;15.90;77.40;;;;;;5074177;28;20049;-84
2021/10/15 10:31:48;;;;;;;8.80;4.05;;;15.90;77.20;;;;;;5072154;28;20489;-84
2021/10/15 10:34:26;;;;;;;8.90;3.88;;;16.00;77.00;;;;;;5072340;28;20566;-83
2021/10/15 10:37:04;;;;;;;8.48;4.05;;;16.10;76.80;;;;;;5071663;28;20101;-85
2021/10/15 10:40:05;;;;;;;9.07;3.92;;;16.20;76.50;;;;;;5071462;28;20082;-84
2021/10/15 10:42:33;;;;;;;9.57;3.70;;;16.40;76.20;;;;;;5071028;28;20041;-84
2021/10/15 10:44:59;;;;;;;8.63;3.50;;;16.40;76.00;;;;;;5070115;28;20283;-85
2021/10/15 10:47:29;;;;;;;7.63;3.03;;;16.60;75.70;;;;;;5073272;28;20463;-83
2021/10/15 10:50:05;;;;;;;7.53;3.30;;;16.70;75.40;;;;;;5071852;28;20402;-83
2021/10/15 10:52:34;;;;;;;7.43;3.70;;;16.80;75.20;;;;;;5072085;28;20048;-83
2021/10/15 10:55:02;;;;;;;9.18;3.60;;;16.90;75.00;;;;;;5071773;28;20044;-84
2021/10/15 10:57:40;;;;;;;10.98;3.85;;;16.90;74.70;;;;;;5069891;28;20041;-83
2021/10/15 11:00:19;;;;;;;9.43;3.58;;;16.90;74.50;;;;;;5068290;28;20049;-83
2021/10/15 11:02:51;;;;;;;9.90;3.45;;;17.00;74.30;;;;;;5083568;28;20040;-85
2021/10/15 11:05:41;;;;;;;9.73;3.67;;;17.10;74.20;;;;;;5075247;28;20041;-84
2021/10/15 11:08:27;;;;;;;14.13;3.67;;;17.10;74.10;;;;;;5074106;28;20287;-83
2021/10/15 11:11:19;;;;;;;9.05;3.65;;;17.20;73.90;;;;;;5071802;28;20094;-83
2021/10/15 11:13:46;;;;;;;7.75;3.15;;;17.10;73.70;;;;;;5071120;28;20040;-84
2021/10/15 11:16:19;;;;;;;7.47;2.97;;;17.10;73.50;;;;;;5071816;28;20056;-84
2021/10/15 11:18:47;;;;;;;9.40;3.15;;;17.10;73.30;;;;;;5071673;28;20082;-83
2021/10/15 11:21:14;;;;;;;6.50;3.00;;;17.10;73.20;;;;;;5067531;28;20082;-83
2021/10/15 11:23:41;;;;;;;5.90;2.80;;;17.10;73.20;;;;;;5075654;28;20056;-83
2021/10/15 11:26:08;;;;;;;8.15;3.20;;;17.10;73.10;;;;;;5073928;28;20067;-83
2021/10/15 11:28:35;;;;;;;7.55;2.92;;;17.00;73.10;;;;;;5072826;28;20049;-82
2021/10/15 11:31:06;;;;;;;12.57;3.28;;;17.00;73.00;;;;;;5071846;28;20093;-83
2021/10/15 11:33:38;;;;;;;6.28;2.70;;;17.00;73.00;;;;;;5070149;28;20069;-83
2021/10/15 11:36:06;;;;;;;7.22;3.25;;;17.00;73.00;;;;;;5068433;28;20437;-84
2021/10/15 11:38:33;;;;;;;6.22;2.85;;;17.00;72.90;;;;;;5075111;28;20471;-83
2021/10/15 11:41:03;;;;;;;8.07;2.80;;;16.90;72.90;;;;;;5071328;28;20572;-83
2021/10/15 11:43:32;;;;;;;7.03;3.08;;;16.90;72.90;;;;;;5070726;28;20550;-83
2021/10/15 11:46:02;;;;;;;7.38;3.20;;;16.90;73.00;;;;;;5071540;28;20162;-83
2021/10/15 11:48:41;;;;;;;4.80;2.42;;;16.90;73.00;;;;;;5069528;28;20045;-82
2021/10/15 11:51:10;;;;;;;6.75;2.80;;;16.80;73.00;;;;;;5067970;28;20142;-83
2021/10/15 11:53:47;;;;;;;7.97;3.20;;;16.80;73.10;;;;;;5078974;28;20078;-83
2021/10/15 11:56:19;;;;;;;6.65;2.95;;;16.80;73.20;;;;;;5075412;28;20048;-83
2021/10/15 11:58:59;;;;;;;6.63;3.00;;;16.80;73.20;;;;;;5074342;28;20501;-83
2021/10/15 12:01:31;;;;;;;7.20;3.25;;;16.80;73.20;;;;;;5075038;28;20075;-84
2021/10/15 12:04:08;;;;;;;8.18;3.40;;;16.70;73.30;;;;;;5074646;28;20527;-83
2021/10/15 12:06:49;;;;;;;6.90;3.30;;;16.80;73.30;;;;;;5075131;28;20082;-84
2021/10/15 12:09:21;;;;;;;7.53;3.20;;;16.80;73.30;;;;;;5055810;28;20501;-84
2021/10/15 12:11:54;;;;;;;6.47;3.20;;;16.80;73.40;;;;;;5075568;28;20044;-84
2021/10/15 12:14:33;;;;;;;7.88;3.75;;;16.80;73.40;;;;;;5078397;28;20097;-83
2021/10/15 12:17:02;;;;;;;8.75;3.17;;;16.70;73.40;;;;;;5074551;28;20052;-84
2021/10/15 12:19:31;;;;;;;7.07;3.35;;;16.70;73.40;;;;;;5074233;28;20044;-84
2021/10/15 12:22:12;;;;;;;6.80;3.20;;;16.70;73.40;;;;;;5074414;28;20470;-84
2021/10/15 12:24:46;;;;;;;11.10;3.80;;;16.60;73.50;;;;;;5073653;28;20051;-84
2021/10/15 12:27:26;;;;;;;5.82;3.00;;;16.60;73.60;;;;;;5054074;28;20048;-83
2021/10/15 12:29:57;;;;;;;8.90;3.55;;;16.60;73.60;;;;;;5086434;28;20052;-84
2021/10/15 12:32:32;;;;;;;7.63;3.60;;;16.60;73.70;;;;;;5076243;28;20106;-85
2021/10/15 12:34:59;;;;;;;8.70;3.30;;;16.60;73.70;;;;;;5072644;28;20105;-84
2021/10/15 12:37:28;;;;;;;7.70;3.25;;;16.60;73.80;;;;;;5074142;28;20642;-84
2021/10/15 12:40:08;;;;;;;7.05;3.53;;;16.60;73.90;;;;;;5073728;28;20577;-85
2021/10/15 12:42:34;;;;;;;9.48;3.58;;;16.60;74.00;;;;;;5072417;28;20040;-85
2021/10/15 12:45:09;;;;;;;8.07;3.47;;;16.50;74.10;;;;;;5072442;28;20056;-83
2021/10/15 12:47:37;;;;;;;8.73;4.18;;;16.50;74.10;;;;;;5078101;28;20394;-85
2021/10/15 12:50:06;;;;;;;9.50;4.07;;;16.50;74.20;;;;;;5075282;28;20056;-84
2021/10/15 12:52:38;;;;;;;10.18;4.10;;;16.50;74.30;;;;;;5073824;28;20044;-85
2021/10/15 12:55:20;;;;;;;7.15;3.85;;;16.50;74.40;;;;;;5073134;28;20104;-85
2021/10/15 12:57:49;;;;;;;8.63;3.80;;;16.40;74.50;;;;;;5073691;28;20493;-85
2021/10/15 13:00:23;;;;;;;8.63;3.95;;;16.40;74.50;;;;;;5068667;28;20070;-86
2021/10/15 13:03:04;;;;;;;7.00;3.78;;;16.40;74.60;;;;;;5072787;28;20086;-85
2021/10/15 13:05:32;;;;;;;6.82;3.65;;;16.40;74.70;;;;;;5075825;28;20075;-85
2021/10/15 13:07:59;;;;;;;4.63;2.83;;;16.30;74.70;;;;;;5072344;28;20118;-84
2021/10/15 13:10:28;;;;;;;7.70;2.90;;;16.20;74.80;;;;;;5072372;28;20040;-85
2021/10/15 13:12:57;;;;;;;5.93;3.17;;;16.20;74.90;;;;;;5072415;28;20052;-85